sensor_id;sensor_type;location;lat;lon;timestamp;P1;durP1;ratioP1;P2;durP2;ratioP2
69678;SDS011;56915;52.046;4.854;2022-07-23T00:00:10;7.95;;;4.90;;
69678;SDS011;56915;52.046;4.854;2022-07-23T00:02:37;8.75;;;5.10;;
69678;SDS011;56915;52.046;4.854;2022-07-23T00:05:04;7.30;;;4.57;;
69678;SDS011;56915;52.046;4.854;2022-07-23T00:07:31;9.57;;;5.13;;
69678;SDS011;56915;52.046;4.854;2022-07-23T00:09:58;8.40;;;5.10;;
69678;SDS011;56915;52.046;4.854;2022-07-23T00:12:25;9.25;;;4.80;;
69678;SDS011;56915;52.046;4.854;2022-07-23T00:14:52;11.57;;;5.25;;
69678;SDS011;56915;52.046;4.854;2022-07-23T00:17:19;8.73;;;4.97;;
69678;SDS011;56915;52.046;4.854;2022-07-23T00:19:46;7.30;;;5.03;;
69678;SDS011;56915;52.046;4.854;2022-07-23T00:22:12;8.00;;;4.90;;
69678;SDS011;56915;52.046;4.854;2022-07-23T00:24:41;8.70;;;5.15;;
69678;SDS011;56915;52.046;4.854;2022-07-23T00:27:08;8.52;;;4.72;;
69678;SDS011;56915;52.046;4.854;2022-07-23T00:29:35;6.82;;;4.53;;
69678;SDS011;56915;52.046;4.854;2022-07-23T00:32:02;9.57;;;5.07;;
69678;SDS011;56915;52.046;4.854;2022-07-23T00:34:28;8.75;;;4.70;;
69678;SDS011;56915;52.046;4.854;2022-07-23T00:36:55;7.50;;;4.72;;
69678;SDS011;56915;52.046;4.854;2022-07-23T00:39:22;8.52;;;4.82;;
69678;SDS011;56915;52.046;4.854;2022-07-23T00:41:49;8.68;;;4.65;;
69678;SDS011;56915;52.046;4.854;2022-07-23T00:44:21;7.53;;;4.47;;
69678;SDS011;56915;52.046;4.854;2022-07-23T00:46:50;11.30;;;4.93;;
69678;SDS011;56915;52.046;4.854;2022-07-23T00:49:23;9.85;;;4.97;;
69678;SDS011;56915;52.046;4.854;2022-07-23T00:51:52;8.82;;;5.03;;
69678;SDS011;56915;52.046;4.854;2022-07-23T00:54:19;8.68;;;5.00;;
69678;SDS011;56915;52.046;4.854;2022-07-23T00:56:48;8.80;;;5.10;;
69678;SDS011;56915;52.046;4.854;2022-07-23T00:59:14;9.48;;;5.00;;
69678;SDS011;56915;52.046;4.854;2022-07-23T01:01:41;10.27;;;5.00;;
69678;SDS011;56915;52.046;4.854;2022-07-23T01:04:10;12.70;;;5.45;;
69678;SDS011;56915;52.046;4.854;2022-07-23T01:06:37;10.40;;;5.60;;
69678;SDS011;56915;52.046;4.854;2022-07-23T01:09:05;9.68;;;5.30;;
69678;SDS011;56915;52.046;4.854;2022-07-23T01:11:36;9.13;;;5.25;;
69678;SDS011;56915;52.046;4.854;2022-07-23T01:16:36;9.07;;;5.07;;
69678;SDS011;56915;52.046;4.854;2022-07-23T01:19:03;10.65;;;5.50;;
69678;SDS011;56915;52.046;4.854;2022-07-23T01:21:36;14.60;;;5.40;;
69678;SDS011;56915;52.046;4.854;2022-07-23T01:24:04;9.18;;;5.22;;
69678;SDS011;56915;52.046;4.854;2022-07-23T01:26:32;8.57;;;5.03;;
69678;SDS011;56915;52.046;4.854;2022-07-23T01:28:59;7.43;;;4.97;;
69678;SDS011;56915;52.046;4.854;2022-07-23T01:31:26;12.68;;;5.38;;
69678;SDS011;56915;52.046;4.854;2022-07-23T01:33:56;11.35;;;5.00;;
69678;SDS011;56915;52.046;4.854;2022-07-23T01:36:25;13.35;;;4.95;;
69678;SDS011;56915;52.046;4.854;2022-07-23T01:38:52;13.43;;;5.13;;
69678;SDS011;56915;52.046;4.854;2022-07-23T01:41:19;13.80;;;5.30;;
69678;SDS011;56915;52.046;4.854;2022-07-23T01:43:47;11.00;;;5.00;;
69678;SDS011;56915;52.046;4.854;2022-07-23T01:46:13;8.82;;;5.00;;
69678;SDS011;56915;52.046;4.854;2022-07-23T01:48:42;9.50;;;5.40;;
69678;SDS011;56915;52.046;4.854;2022-07-23T01:51:09;8.55;;;5.22;;
69678;SDS011;56915;52.046;4.854;2022-07-23T01:53:36;9.70;;;5.10;;
69678;SDS011;56915;52.046;4.854;2022-07-23T01:56:03;9.45;;;4.97;;
69678;SDS011;56915;52.046;4.854;2022-07-23T01:58:30;11.30;;;4.95;;
69678;SDS011;56915;52.046;4.854;2022-07-23T02:00:57;11.02;;;5.40;;
69678;SDS011;56915;52.046;4.854;2022-07-23T02:03:24;9.15;;;5.45;;
69678;SDS011;56915;52.046;4.854;2022-07-23T02:05:52;11.48;;;5.00;;
69678;SDS011;56915;52.046;4.854;2022-07-23T02:08:18;14.63;;;5.28;;
69678;SDS011;56915;52.046;4.854;2022-07-23T02:10:45;9.07;;;5.45;;
69678;SDS011;56915;52.046;4.854;2022-07-23T02:13:12;11.88;;;5.22;;
69678;SDS011;56915;52.046;4.854;2022-07-23T02:15:45;10.82;;;5.35;;
69678;SDS011;56915;52.046;4.854;2022-07-23T02:18:13;13.30;;;5.40;;
69678;SDS011;56915;52.046;4.854;2022-07-23T02:20:40;10.25;;;5.47;;
69678;SDS011;56915;52.046;4.854;2022-07-23T02:23:08;10.07;;;5.13;;
69678;SDS011;56915;52.046;4.854;2022-07-23T02:25:35;14.55;;;5.72;;
69678;SDS011;56915;52.046;4.854;2022-07-23T02:28:02;9.40;;;4.93;;
69678;SDS011;56915;52.046;4.854;2022-07-23T02:30:29;8.55;;;5.18;;
69678;SDS011;56915;52.046;4.854;2022-07-23T02:32:56;10.02;;;5.35;;
69678;SDS011;56915;52.046;4.854;2022-07-23T02:35:23;9.88;;;5.10;;
69678;SDS011;56915;52.046;4.854;2022-07-23T02:37:49;10.07;;;5.43;;
69678;SDS011;56915;52.046;4.854;2022-07-23T02:40:17;13.10;;;6.07;;
69678;SDS011;56915;52.046;4.854;2022-07-23T02:42:44;11.10;;;5.60;;
69678;SDS011;56915;52.046;4.854;2022-07-23T02:45:12;9.05;;;5.20;;
69678;SDS011;56915;52.046;4.854;2022-07-23T02:47:39;9.50;;;5.28;;
69678;SDS011;56915;52.046;4.854;2022-07-23T02:50:06;9.73;;;5.38;;
69678;SDS011;56915;52.046;4.854;2022-07-23T02:52:33;12.27;;;5.45;;
69678;SDS011;56915;52.046;4.854;2022-07-23T02:55:00;11.50;;;5.55;;
69678;SDS011;56915;52.046;4.854;2022-07-23T02:57:31;12.15;;;5.68;;
69678;SDS011;56915;52.046;4.854;2022-07-23T02:59:58;10.85;;;5.60;;
69678;SDS011;56915;52.046;4.854;2022-07-23T03:02:24;13.27;;;6.15;;
69678;SDS011;56915;52.046;4.854;2022-07-23T03:04:52;12.75;;;5.80;;
69678;SDS011;56915;52.046;4.854;2022-07-23T03:07:19;9.27;;;5.22;;
69678;SDS011;56915;52.046;4.854;2022-07-23T03:09:45;13.00;;;5.47;;
69678;SDS011;56915;52.046;4.854;2022-07-23T03:12:12;11.38;;;5.60;;
69678;SDS011;56915;52.046;4.854;2022-07-23T03:14:40;11.45;;;5.50;;
69678;SDS011;56915;52.046;4.854;2022-07-23T03:17:07;9.55;;;5.32;;
69678;SDS011;56915;52.046;4.854;2022-07-23T03:19:35;11.65;;;5.55;;
69678;SDS011;56915;52.046;4.854;2022-07-23T03:22:02;10.48;;;5.55;;
69678;SDS011;56915;52.046;4.854;2022-07-23T03:24:29;13.10;;;5.70;;
69678;SDS011;56915;52.046;4.854;2022-07-23T03:27:15;18.75;;;5.68;;
69678;SDS011;56915;52.046;4.854;2022-07-23T03:29:41;10.55;;;5.63;;
69678;SDS011;56915;52.046;4.854;2022-07-23T03:32:08;13.73;;;5.78;;
69678;SDS011;56915;52.046;4.854;2022-07-23T03:34:36;12.63;;;5.82;;
69678;SDS011;56915;52.046;4.854;2022-07-23T03:37:04;11.18;;;5.47;;
69678;SDS011;56915;52.046;4.854;2022-07-23T03:39:31;11.50;;;5.50;;
69678;SDS011;56915;52.046;4.854;2022-07-23T03:41:58;10.93;;;5.68;;
69678;SDS011;56915;52.046;4.854;2022-07-23T03:44:25;10.88;;;5.47;;
69678;SDS011;56915;52.046;4.854;2022-07-23T03:46:52;10.45;;;5.45;;
69678;SDS011;56915;52.046;4.854;2022-07-23T03:49:19;10.45;;;5.70;;
69678;SDS011;56915;52.046;4.854;2022-07-23T03:51:46;9.68;;;5.60;;
69678;SDS011;56915;52.046;4.854;2022-07-23T03:54:13;9.90;;;5.28;;
69678;SDS011;56915;52.046;4.854;2022-07-23T03:56:40;9.75;;;4.70;;
69678;SDS011;56915;52.046;4.854;2022-07-23T03:59:07;11.77;;;4.90;;
69678;SDS011;56915;52.046;4.854;2022-07-23T04:01:34;11.13;;;5.32;;
69678;SDS011;56915;52.046;4.854;2022-07-23T04:04:01;10.90;;;4.90;;
69678;SDS011;56915;52.046;4.854;2022-07-23T04:06:28;9.15;;;4.28;;
69678;SDS011;56915;52.046;4.854;2022-07-23T04:08:55;8.35;;;4.05;;
69678;SDS011;56915;52.046;4.854;2022-07-23T04:11:22;9.00;;;4.50;;
69678;SDS011;56915;52.046;4.854;2022-07-23T04:13:49;9.77;;;4.93;;
69678;SDS011;56915;52.046;4.854;2022-07-23T04:16:16;9.48;;;4.88;;
69678;SDS011;56915;52.046;4.854;2022-07-23T04:18:42;8.95;;;4.97;;
69678;SDS011;56915;52.046;4.854;2022-07-23T04:21:09;10.27;;;5.10;;
69678;SDS011;56915;52.046;4.854;2022-07-23T04:23:36;10.18;;;5.60;;
69678;SDS011;56915;52.046;4.854;2022-07-23T04:26:03;10.95;;;5.43;;
69678;SDS011;56915;52.046;4.854;2022-07-23T04:28:30;10.50;;;5.03;;
69678;SDS011;56915;52.046;4.854;2022-07-23T04:30:57;9.20;;;4.78;;
69678;SDS011;56915;52.046;4.854;2022-07-23T04:33:24;8.43;;;4.78;;
69678;SDS011;56915;52.046;4.854;2022-07-23T04:35:51;9.68;;;4.72;;
69678;SDS011;56915;52.046;4.854;2022-07-23T04:38:18;8.82;;;4.43;;
69678;SDS011;56915;52.046;4.854;2022-07-23T04:40:45;8.57;;;5.07;;
69678;SDS011;56915;52.046;4.854;2022-07-23T04:43:12;7.80;;;4.85;;
69678;SDS011;56915;52.046;4.854;2022-07-23T04:45:39;9.95;;;4.80;;
69678;SDS011;56915;52.046;4.854;2022-07-23T04:48:06;9.93;;;5.05;;
69678;SDS011;56915;52.046;4.854;2022-07-23T04:50:33;12.07;;;4.95;;
69678;SDS011;56915;52.046;4.854;2022-07-23T04:52:59;10.00;;;5.20;;
69678;SDS011;56915;52.046;4.854;2022-07-23T04:55:26;9.30;;;4.65;;
69678;SDS011;56915;52.046;4.854;2022-07-23T04:57:53;7.55;;;4.45;;
69678;SDS011;56915;52.046;4.854;2022-07-23T05:00:20;9.25;;;4.35;;
69678;SDS011;56915;52.046;4.854;2022-07-23T05:02:47;9.20;;;4.35;;
69678;SDS011;56915;52.046;4.854;2022-07-23T05:05:13;6.93;;;4.10;;
69678;SDS011;56915;52.046;4.854;2022-07-23T05:07:40;5.47;;;3.80;;
69678;SDS011;56915;52.046;4.854;2022-07-23T05:10:07;7.70;;;3.30;;
69678;SDS011;56915;52.046;4.854;2022-07-23T05:12:34;6.95;;;3.55;;
69678;SDS011;56915;52.046;4.854;2022-07-23T05:15:01;5.90;;;3.50;;
69678;SDS011;56915;52.046;4.854;2022-07-23T05:17:28;10.55;;;3.08;;
69678;SDS011;56915;52.046;4.854;2022-07-23T05:19:54;5.53;;;3.50;;
69678;SDS011;56915;52.046;4.854;2022-07-23T05:22:26;6.18;;;3.28;;
69678;SDS011;56915;52.046;4.854;2022-07-23T05:24:53;6.43;;;3.88;;
69678;SDS011;56915;52.046;4.854;2022-07-23T05:27:20;8.10;;;4.45;;
69678;SDS011;56915;52.046;4.854;2022-07-23T05:29:47;7.22;;;4.68;;
69678;SDS011;56915;52.046;4.854;2022-07-23T05:32:14;6.50;;;3.83;;
69678;SDS011;56915;52.046;4.854;2022-07-23T05:34:40;7.30;;;4.10;;
69678;SDS011;56915;52.046;4.854;2022-07-23T05:37:07;9.38;;;4.03;;
69678;SDS011;56915;52.046;4.854;2022-07-23T05:39:34;8.55;;;4.53;;
69678;SDS011;56915;52.046;4.854;2022-07-23T05:42:01;7.63;;;4.10;;
69678;SDS011;56915;52.046;4.854;2022-07-23T05:44:28;8.02;;;4.03;;
69678;SDS011;56915;52.046;4.854;2022-07-23T05:49:31;5.18;;;4.05;;
69678;SDS011;56915;52.046;4.854;2022-07-23T05:51:58;6.85;;;3.70;;
69678;SDS011;56915;52.046;4.854;2022-07-23T05:54:29;8.02;;;4.00;;
69678;SDS011;56915;52.046;4.854;2022-07-23T05:56:56;7.60;;;4.05;;
69678;SDS011;56915;52.046;4.854;2022-07-23T05:59:23;5.93;;;3.80;;
69678;SDS011;56915;52.046;4.854;2022-07-23T06:01:50;7.57;;;4.55;;
69678;SDS011;56915;52.046;4.854;2022-07-23T06:04:16;6.80;;;4.13;;
69678;SDS011;56915;52.046;4.854;2022-07-23T06:06:43;5.93;;;3.50;;
69678;SDS011;56915;52.046;4.854;2022-07-23T06:09:11;6.22;;;4.10;;
69678;SDS011;56915;52.046;4.854;2022-07-23T06:11:40;4.82;;;3.00;;
69678;SDS011;56915;52.046;4.854;2022-07-23T06:14:07;6.10;;;3.00;;
69678;SDS011;56915;52.046;4.854;2022-07-23T06:16:34;6.72;;;3.80;;
69678;SDS011;56915;52.046;4.854;2022-07-23T06:19:01;5.75;;;3.38;;
69678;SDS011;56915;52.046;4.854;2022-07-23T06:24:18;6.03;;;2.70;;
69678;SDS011;56915;52.046;4.854;2022-07-23T06:26:45;4.30;;;3.03;;
69678;SDS011;56915;52.046;4.854;2022-07-23T06:29:12;5.32;;;2.50;;
69678;SDS011;56915;52.046;4.854;2022-07-23T06:31:46;3.47;;;2.22;;
69678;SDS011;56915;52.046;4.854;2022-07-23T06:37:11;4.15;;;2.13;;
69678;SDS011;56915;52.046;4.854;2022-07-23T06:39:40;4.70;;;1.85;;
69678;SDS011;56915;52.046;4.854;2022-07-23T06:42:07;3.58;;;1.80;;
69678;SDS011;56915;52.046;4.854;2022-07-23T06:44:36;3.55;;;1.90;;
69678;SDS011;56915;52.046;4.854;2022-07-23T06:47:03;3.20;;;1.80;;
69678;SDS011;56915;52.046;4.854;2022-07-23T06:52:03;3.00;;;1.73;;
69678;SDS011;56915;52.046;4.854;2022-07-23T06:54:30;3.67;;;1.80;;
69678;SDS011;56915;52.046;4.854;2022-07-23T06:56:57;3.38;;;1.90;;
69678;SDS011;56915;52.046;4.854;2022-07-23T06:59:24;3.33;;;1.80;;
69678;SDS011;56915;52.046;4.854;2022-07-23T07:01:51;4.40;;;1.55;;
69678;SDS011;56915;52.046;4.854;2022-07-23T07:04:19;3.60;;;1.60;;
69678;SDS011;56915;52.046;4.854;2022-07-23T07:06:52;2.72;;;1.48;;
69678;SDS011;56915;52.046;4.854;2022-07-23T07:09:19;2.30;;;1.65;;
69678;SDS011;56915;52.046;4.854;2022-07-23T07:11:46;2.90;;;2.10;;
69678;SDS011;56915;52.046;4.854;2022-07-23T07:14:12;3.35;;;1.65;;
69678;SDS011;56915;52.046;4.854;2022-07-23T07:16:39;4.13;;;1.65;;
69678;SDS011;56915;52.046;4.854;2022-07-23T07:19:06;2.90;;;2.10;;
69678;SDS011;56915;52.046;4.854;2022-07-23T07:21:33;2.78;;;1.90;;
69678;SDS011;56915;52.046;4.854;2022-07-23T07:24:00;6.25;;;2.13;;
69678;SDS011;56915;52.046;4.854;2022-07-23T07:26:27;5.30;;;2.35;;
69678;SDS011;56915;52.046;4.854;2022-07-23T07:28:54;5.65;;;2.30;;
69678;SDS011;56915;52.046;4.854;2022-07-23T07:31:21;3.50;;;2.00;;
69678;SDS011;56915;52.046;4.854;2022-07-23T07:33:47;4.20;;;2.50;;
69678;SDS011;56915;52.046;4.854;2022-07-23T07:36:14;4.22;;;2.20;;
69678;SDS011;56915;52.046;4.854;2022-07-23T07:38:51;6.82;;;2.33;;
69678;SDS011;56915;52.046;4.854;2022-07-23T07:41:18;3.40;;;2.40;;
69678;SDS011;56915;52.046;4.854;2022-07-23T07:43:49;3.85;;;2.17;;
69678;SDS011;56915;52.046;4.854;2022-07-23T07:46:16;4.68;;;2.60;;
69678;SDS011;56915;52.046;4.854;2022-07-23T07:48:43;3.22;;;2.38;;
69678;SDS011;56915;52.046;4.854;2022-07-23T07:51:13;6.20;;;2.53;;
69678;SDS011;56915;52.046;4.854;2022-07-23T07:53:40;7.10;;;2.45;;
69678;SDS011;56915;52.046;4.854;2022-07-23T07:56:07;3.75;;;2.53;;
69678;SDS011;56915;52.046;4.854;2022-07-23T07:58:35;5.38;;;2.40;;
69678;SDS011;56915;52.046;4.854;2022-07-23T08:01:02;3.50;;;2.30;;
69678;SDS011;56915;52.046;4.854;2022-07-23T08:03:29;3.97;;;2.20;;
69678;SDS011;56915;52.046;4.854;2022-07-23T08:05:56;3.47;;;2.20;;
69678;SDS011;56915;52.046;4.854;2022-07-23T08:08:23;4.80;;;2.10;;
69678;SDS011;56915;52.046;4.854;2022-07-23T08:10:50;5.07;;;2.25;;
69678;SDS011;56915;52.046;4.854;2022-07-23T08:13:17;4.53;;;2.40;;
69678;SDS011;56915;52.046;4.854;2022-07-23T08:15:44;5.18;;;2.42;;
69678;SDS011;56915;52.046;4.854;2022-07-23T08:18:12;4.03;;;2.10;;
69678;SDS011;56915;52.046;4.854;2022-07-23T08:20:38;4.28;;;2.15;;
69678;SDS011;56915;52.046;4.854;2022-07-23T08:23:06;4.75;;;2.40;;
69678;SDS011;56915;52.046;4.854;2022-07-23T08:25:35;4.10;;;2.20;;
69678;SDS011;56915;52.046;4.854;2022-07-23T08:28:05;4.97;;;2.30;;
69678;SDS011;56915;52.046;4.854;2022-07-23T08:30:34;4.28;;;2.00;;
69678;SDS011;56915;52.046;4.854;2022-07-23T08:33:06;5.43;;;2.28;;
69678;SDS011;56915;52.046;4.854;2022-07-23T08:35:56;3.35;;;2.10;;
69678;SDS011;56915;52.046;4.854;2022-07-23T08:38:23;3.95;;;1.90;;
69678;SDS011;56915;52.046;4.854;2022-07-23T08:40:52;3.67;;;2.20;;
69678;SDS011;56915;52.046;4.854;2022-07-23T08:43:23;3.22;;;2.20;;
69678;SDS011;56915;52.046;4.854;2022-07-23T08:45:52;4.95;;;2.00;;
69678;SDS011;56915;52.046;4.854;2022-07-23T08:48:23;2.95;;;2.10;;
69678;SDS011;56915;52.046;4.854;2022-07-23T08:50:52;3.15;;;2.10;;
69678;SDS011;56915;52.046;4.854;2022-07-23T08:53:23;3.50;;;2.20;;
69678;SDS011;56915;52.046;4.854;2022-07-23T08:55:53;4.00;;;2.22;;
69678;SDS011;56915;52.046;4.854;2022-07-23T08:58:22;4.35;;;2.22;;
69678;SDS011;56915;52.046;4.854;2022-07-23T09:00:53;3.28;;;1.90;;
69678;SDS011;56915;52.046;4.854;2022-07-23T09:03:30;5.35;;;2.25;;
69678;SDS011;56915;52.046;4.854;2022-07-23T09:05:59;4.80;;;2.30;;
69678;SDS011;56915;52.046;4.854;2022-07-23T09:08:40;4.47;;;2.20;;
69678;SDS011;56915;52.046;4.854;2022-07-23T09:11:13;5.30;;;2.00;;
69678;SDS011;56915;52.046;4.854;2022-07-23T09:13:52;3.92;;;2.20;;
69678;SDS011;56915;52.046;4.854;2022-07-23T09:16:23;4.30;;;2.17;;
69678;SDS011;56915;52.046;4.854;2022-07-23T09:18:56;3.83;;;2.30;;
69678;SDS011;56915;52.046;4.854;2022-07-23T09:21:25;3.97;;;2.10;;
69678;SDS011;56915;52.046;4.854;2022-07-23T09:24:09;3.40;;;2.20;;
69678;SDS011;56915;52.046;4.854;2022-07-23T09:31:54;3.22;;;2.50;;
69678;SDS011;56915;52.046;4.854;2022-07-23T09:34:34;4.47;;;2.42;;
69678;SDS011;56915;52.046;4.854;2022-07-23T09:37:09;4.45;;;2.50;;
69678;SDS011;56915;52.046;4.854;2022-07-23T09:39:36;4.82;;;2.83;;
69678;SDS011;56915;52.046;4.854;2022-07-23T09:42:14;3.65;;;2.58;;
69678;SDS011;56915;52.046;4.854;2022-07-23T09:44:46;3.03;;;2.50;;
69678;SDS011;56915;52.046;4.854;2022-07-23T09:47:14;4.13;;;2.20;;
69678;SDS011;56915;52.046;4.854;2022-07-23T09:49:57;2.88;;;2.25;;
69678;SDS011;56915;52.046;4.854;2022-07-23T09:52:30;5.32;;;2.40;;
69678;SDS011;56915;52.046;4.854;2022-07-23T09:55:02;4.22;;;2.58;;
69678;SDS011;56915;52.046;4.854;2022-07-23T09:57:31;4.80;;;3.00;;
69678;SDS011;56915;52.046;4.854;2022-07-23T10:00:00;2.90;;;2.60;;
69678;SDS011;56915;52.046;4.854;2022-07-23T10:02:31;3.63;;;2.58;;
69678;SDS011;56915;52.046;4.854;2022-07-23T10:04:59;4.80;;;2.60;;
69678;SDS011;56915;52.046;4.854;2022-07-23T10:07:28;3.92;;;2.72;;
69678;SDS011;56915;52.046;4.854;2022-07-23T10:10:00;4.27;;;2.50;;
69678;SDS011;56915;52.046;4.854;2022-07-23T10:12:27;4.82;;;2.53;;
69678;SDS011;56915;52.046;4.854;2022-07-23T10:15:14;3.47;;;2.50;;
69678;SDS011;56915;52.046;4.854;2022-07-23T10:17:40;3.90;;;2.60;;
69678;SDS011;56915;52.046;4.854;2022-07-23T10:20:07;4.15;;;2.75;;
69678;SDS011;56915;52.046;4.854;2022-07-23T10:22:35;7.23;;;6.53;;
69678;SDS011;56915;52.046;4.854;2022-07-23T10:25:25;4.80;;;3.15;;
69678;SDS011;56915;52.046;4.854;2022-07-23T10:31:14;4.75;;;2.95;;
69678;SDS011;56915;52.046;4.854;2022-07-23T10:34:42;4.95;;;3.05;;
69678;SDS011;56915;52.046;4.854;2022-07-23T10:37:21;3.03;;;2.40;;
69678;SDS011;56915;52.046;4.854;2022-07-23T10:40:19;2.92;;;2.50;;
69678;SDS011;56915;52.046;4.854;2022-07-23T10:42:47;4.05;;;2.60;;
69678;SDS011;56915;52.046;4.854;2022-07-23T10:48:11;4.32;;;2.38;;
69678;SDS011;56915;52.046;4.854;2022-07-23T10:50:40;2.47;;;2.20;;
69678;SDS011;56915;52.046;4.854;2022-07-23T10:53:09;3.10;;;2.30;;
69678;SDS011;56915;52.046;4.854;2022-07-23T10:55:43;4.15;;;2.13;;
69678;SDS011;56915;52.046;4.854;2022-07-23T10:58:19;4.03;;;2.40;;
69678;SDS011;56915;52.046;4.854;2022-07-23T11:00:48;4.80;;;3.22;;
69678;SDS011;56915;52.046;4.854;2022-07-23T11:03:34;4.87;;;2.80;;
69678;SDS011;56915;52.046;4.854;2022-07-23T11:06:05;3.90;;;2.75;;
69678;SDS011;56915;52.046;4.854;2022-07-23T11:08:35;5.15;;;2.25;;
69678;SDS011;56915;52.046;4.854;2022-07-23T11:13:30;4.40;;;2.75;;
69678;SDS011;56915;52.046;4.854;2022-07-23T11:21:44;4.68;;;2.60;;
69678;SDS011;56915;52.046;4.854;2022-07-23T11:24:04;5.70;;;2.85;;
69678;SDS011;56915;52.046;4.854;2022-07-23T11:31:54;5.90;;;2.30;;
69678;SDS011;56915;52.046;4.854;2022-07-23T11:37:07;3.88;;;2.30;;
69678;SDS011;56915;52.046;4.854;2022-07-23T11:39:36;4.55;;;2.90;;
69678;SDS011;56915;52.046;4.854;2022-07-23T11:42:05;4.00;;;2.60;;
69678;SDS011;56915;52.046;4.854;2022-07-23T11:44:34;4.03;;;2.83;;
69678;SDS011;56915;52.046;4.854;2022-07-23T11:49:31;3.47;;;2.17;;
69678;SDS011;56915;52.046;4.854;2022-07-23T11:52:08;3.88;;;2.50;;
69678;SDS011;56915;52.046;4.854;2022-07-23T11:54:48;2.87;;;2.33;;
69678;SDS011;56915;52.046;4.854;2022-07-23T11:57:21;3.53;;;2.70;;
69678;SDS011;56915;52.046;4.854;2022-07-23T12:02:55;4.78;;;2.58;;
69678;SDS011;56915;52.046;4.854;2022-07-23T12:05:33;4.03;;;2.30;;
69678;SDS011;56915;52.046;4.854;2022-07-23T12:08:03;3.40;;;2.50;;
69678;SDS011;56915;52.046;4.854;2022-07-23T12:10:38;3.78;;;2.50;;
69678;SDS011;56915;52.046;4.854;2022-07-23T12:13:08;4.57;;;2.90;;
69678;SDS011;56915;52.046;4.854;2022-07-23T12:15:47;4.03;;;2.40;;
69678;SDS011;56915;52.046;4.854;2022-07-23T12:18:16;4.47;;;2.80;;
69678;SDS011;56915;52.046;4.854;2022-07-23T12:20:51;3.37;;;2.73;;
69678;SDS011;56915;52.046;4.854;2022-07-23T12:23:22;4.13;;;2.60;;
69678;SDS011;56915;52.046;4.854;2022-07-23T12:25:50;3.72;;;2.78;;
69678;SDS011;56915;52.046;4.854;2022-07-23T12:28:19;3.78;;;2.92;;
69678;SDS011;56915;52.046;4.854;2022-07-23T12:30:59;3.58;;;2.45;;
69678;SDS011;56915;52.046;4.854;2022-07-23T12:33:27;3.20;;;2.40;;
69678;SDS011;56915;52.046;4.854;2022-07-23T12:36:05;2.85;;;2.20;;
69678;SDS011;56915;52.046;4.854;2022-07-23T12:38:37;3.97;;;2.30;;
69678;SDS011;56915;52.046;4.854;2022-07-23T12:41:05;3.45;;;2.13;;
69678;SDS011;56915;52.046;4.854;2022-07-23T12:43:36;3.08;;;2.10;;
69678;SDS011;56915;52.046;4.854;2022-07-23T12:48:36;3.83;;;2.00;;
69678;SDS011;56915;52.046;4.854;2022-07-23T12:51:06;2.55;;;2.10;;
69678;SDS011;56915;52.046;4.854;2022-07-23T12:56:13;3.03;;;1.95;;
69678;SDS011;56915;52.046;4.854;2022-07-23T13:06:24;3.28;;;1.73;;
69678;SDS011;56915;52.046;4.854;2022-07-23T13:08:53;2.00;;;1.80;;
69678;SDS011;56915;52.046;4.854;2022-07-23T13:11:19;2.27;;;1.87;;
69678;SDS011;56915;52.046;4.854;2022-07-23T13:13:47;2.58;;;1.90;;
69678;SDS011;56915;52.046;4.854;2022-07-23T13:16:13;3.03;;;1.90;;
69678;SDS011;56915;52.046;4.854;2022-07-23T13:18:41;2.72;;;1.70;;
69678;SDS011;56915;52.046;4.854;2022-07-23T13:21:08;5.25;;;2.00;;
69678;SDS011;56915;52.046;4.854;2022-07-23T13:23:35;3.07;;;1.83;;
69678;SDS011;56915;52.046;4.854;2022-07-23T13:26:02;3.35;;;2.00;;
69678;SDS011;56915;52.046;4.854;2022-07-23T13:28:30;4.28;;;2.20;;
69678;SDS011;56915;52.046;4.854;2022-07-23T13:30:57;4.00;;;2.45;;
69678;SDS011;56915;52.046;4.854;2022-07-23T13:33:24;3.05;;;2.38;;
69678;SDS011;56915;52.046;4.854;2022-07-23T13:35:52;4.03;;;2.30;;
69678;SDS011;56915;52.046;4.854;2022-07-23T13:38:21;3.63;;;2.17;;
69678;SDS011;56915;52.046;4.854;2022-07-23T13:40:49;2.95;;;2.20;;
69678;SDS011;56915;52.046;4.854;2022-07-23T13:43:17;2.47;;;2.17;;
69678;SDS011;56915;52.046;4.854;2022-07-23T13:45:48;2.45;;;2.25;;
69678;SDS011;56915;52.046;4.854;2022-07-23T13:48:19;3.70;;;2.20;;
69678;SDS011;56915;52.046;4.854;2022-07-23T13:50:47;5.45;;;2.50;;
69678;SDS011;56915;52.046;4.854;2022-07-23T13:53:16;3.03;;;2.17;;
69678;SDS011;56915;52.046;4.854;2022-07-23T13:55:45;4.47;;;2.20;;
69678;SDS011;56915;52.046;4.854;2022-07-23T13:58:14;3.53;;;2.30;;
69678;SDS011;56915;52.046;4.854;2022-07-23T14:00:44;3.23;;;2.30;;
69678;SDS011;56915;52.046;4.854;2022-07-23T14:03:18;3.70;;;2.50;;
69678;SDS011;56915;52.046;4.854;2022-07-23T14:05:47;3.53;;;2.20;;
69678;SDS011;56915;52.046;4.854;2022-07-23T14:08:14;4.60;;;2.63;;
69678;SDS011;56915;52.046;4.854;2022-07-23T14:10:41;4.60;;;2.60;;
69678;SDS011;56915;52.046;4.854;2022-07-23T14:13:08;3.23;;;2.60;;
69678;SDS011;56915;52.046;4.854;2022-07-23T14:15:35;3.38;;;2.65;;
69678;SDS011;56915;52.046;4.854;2022-07-23T14:18:04;4.03;;;2.80;;
69678;SDS011;56915;52.046;4.854;2022-07-23T14:20:31;4.45;;;3.33;;
69678;SDS011;56915;52.046;4.854;2022-07-23T14:22:58;3.90;;;3.20;;
69678;SDS011;56915;52.046;4.854;2022-07-23T14:25:31;5.07;;;3.20;;
69678;SDS011;56915;52.046;4.854;2022-07-23T14:27:59;3.25;;;2.90;;
69678;SDS011;56915;52.046;4.854;2022-07-23T14:30:25;4.50;;;3.33;;
69678;SDS011;56915;52.046;4.854;2022-07-23T14:32:59;4.55;;;3.05;;
69678;SDS011;56915;52.046;4.854;2022-07-23T14:35:26;3.40;;;2.90;;
69678;SDS011;56915;52.046;4.854;2022-07-23T14:37:53;4.33;;;3.00;;
69678;SDS011;56915;52.046;4.854;2022-07-23T14:40:21;3.88;;;2.80;;
69678;SDS011;56915;52.046;4.854;2022-07-23T14:42:48;6.10;;;2.78;;
69678;SDS011;56915;52.046;4.854;2022-07-23T14:45:16;3.72;;;2.60;;
69678;SDS011;56915;52.046;4.854;2022-07-23T14:47:44;2.78;;;2.30;;
69678;SDS011;56915;52.046;4.854;2022-07-23T14:50:13;2.70;;;2.50;;
69678;SDS011;56915;52.046;4.854;2022-07-23T14:52:40;6.53;;;2.55;;
69678;SDS011;56915;52.046;4.854;2022-07-23T14:55:07;3.70;;;2.88;;
69678;SDS011;56915;52.046;4.854;2022-07-23T14:57:35;3.28;;;2.95;;
69678;SDS011;56915;52.046;4.854;2022-07-23T15:00:03;3.10;;;2.80;;
69678;SDS011;56915;52.046;4.854;2022-07-23T15:02:31;4.53;;;3.10;;
69678;SDS011;56915;52.046;4.854;2022-07-23T15:04:58;3.72;;;3.30;;
69678;SDS011;56915;52.046;4.854;2022-07-23T15:07:27;3.65;;;3.20;;
69678;SDS011;56915;52.046;4.854;2022-07-23T15:09:56;3.15;;;2.88;;
69678;SDS011;56915;52.046;4.854;2022-07-23T15:12:24;3.42;;;3.00;;
69678;SDS011;56915;52.046;4.854;2022-07-23T15:14:51;3.57;;;2.90;;
69678;SDS011;56915;52.046;4.854;2022-07-23T15:17:18;3.58;;;3.28;;
69678;SDS011;56915;52.046;4.854;2022-07-23T15:19:46;3.38;;;2.72;;
69678;SDS011;56915;52.046;4.854;2022-07-23T15:22:20;5.40;;;2.80;;
69678;SDS011;56915;52.046;4.854;2022-07-23T15:24:47;3.40;;;2.70;;
69678;SDS011;56915;52.046;4.854;2022-07-23T15:27:14;3.50;;;3.20;;
69678;SDS011;56915;52.046;4.854;2022-07-23T15:29:42;3.53;;;2.90;;
69678;SDS011;56915;52.046;4.854;2022-07-23T15:32:09;3.40;;;3.08;;
69678;SDS011;56915;52.046;4.854;2022-07-23T15:34:38;3.40;;;3.10;;
69678;SDS011;56915;52.046;4.854;2022-07-23T15:37:05;3.47;;;3.17;;
69678;SDS011;56915;52.046;4.854;2022-07-23T15:39:39;3.70;;;3.30;;
69678;SDS011;56915;52.046;4.854;2022-07-23T15:42:06;6.22;;;4.30;;
69678;SDS011;56915;52.046;4.854;2022-07-23T15:44:40;3.63;;;3.30;;
69678;SDS011;56915;52.046;4.854;2022-07-23T15:47:10;5.28;;;3.30;;
69678;SDS011;56915;52.046;4.854;2022-07-23T15:49:38;4.13;;;3.50;;
69678;SDS011;56915;52.046;4.854;2022-07-23T15:52:06;4.20;;;3.80;;
69678;SDS011;56915;52.046;4.854;2022-07-23T15:54:33;4.00;;;3.65;;